sensor_id;sensor_type;location;lat;lon;timestamp;pressure;altitude;pressure_sealevel;temperature;humidity
71361;BME280;59166;48.908;1.870;2024-03-29T00:02:12;97752.66;;;8.99;100.00
71361;BME280;59166;48.908;1.870;2024-03-29T00:07:13;97762.47;;;8.95;100.00
71361;BME280;59166;48.908;1.870;2024-03-29T00:12:13;97764.09;;;9.04;100.00
71361;BME280;59166;48.908;1.870;2024-03-29T00:17:15;97742.56;;;9.04;100.00
71361;BME280;59166;48.908;1.870;2024-03-29T00:22:16;97726.41;;;9.04;100.00
71361;BME280;59166;48.908;1.870;2024-03-29T00:27:17;97706.91;;;9.16;100.00
71361;BME280;59166;48.908;1.870;2024-03-29T00:32:19;97696.16;;;9.16;100.00
71361;BME280;59166;48.908;1.870;2024-03-29T00:37:20;97690.13;;;9.10;100.00
71361;BME280;59166;48.908;1.870;2024-03-29T00:42:20;97694.09;;;9.04;100.00
71361;BME280;59166;48.908;1.870;2024-03-29T00:47:22;97680.47;;;9.09;100.00
71361;BME280;59166;48.908;1.870;2024-03-29T00:52:23;97685.84;;;9.09;100.00
71361;BME280;59166;48.908;1.870;2024-03-29T00:57:23;97712.44;;;9.02;100.00
71361;BME280;59166;48.908;1.870;2024-03-29T01:02:25;97718.75;;;8.89;100.00
71361;BME280;59166;48.908;1.870;2024-03-29T01:07:26;97721.56;;;8.84;100.00
71361;BME280;59166;48.908;1.870;2024-03-29T01:12:26;97735.69;;;8.90;100.00
71361;BME280;59166;48.908;1.870;2024-03-29T01:17:29;97746.06;;;8.82;100.00
71361;BME280;59166;48.908;1.870;2024-03-29T01:22:29;97756.06;;;8.82;100.00
71361;BME280;59166;48.908;1.870;2024-03-29T01:27:30;97753.72;;;8.89;100.00
71361;BME280;59166;48.908;1.870;2024-03-29T01:32:32;97750.75;;;8.91;100.00
71361;BME280;59166;48.908;1.870;2024-03-29T01:37:32;97749.44;;;8.88;100.00
71361;BME280;59166;48.908;1.870;2024-03-29T01:42:33;97731.97;;;8.77;100.00
71361;BME280;59166;48.908;1.870;2024-03-29T01:47:35;97712.63;;;8.75;100.00
71361;BME280;59166;48.908;1.870;2024-03-29T01:52:36;97721.84;;;8.74;100.00
71361;BME280;59166;48.908;1.870;2024-03-29T01:57:37;97725.63;;;8.81;100.00
71361;BME280;59166;48.908;1.870;2024-03-29T02:02:39;97723.13;;;8.85;100.00
71361;BME280;59166;48.908;1.870;2024-03-29T02:07:39;97732.63;;;8.82;100.00
71361;BME280;59166;48.908;1.870;2024-03-29T02:12:40;97732.88;;;8.64;100.00
71361;BME280;59166;48.908;1.870;2024-03-29T02:17:42;97735.91;;;8.71;100.00
71361;BME280;59166;48.908;1.870;2024-03-29T02:22:46;97734.44;;;8.65;100.00
71361;BME280;59166;48.908;1.870;2024-03-29T02:27:53;97718.63;;;8.63;100.00
71361;BME280;59166;48.908;1.870;2024-03-29T02:32:54;97731.09;;;8.59;100.00
71361;BME280;59166;48.908;1.870;2024-03-29T02:37:55;97739.72;;;8.70;100.00
71361;BME280;59166;48.908;1.870;2024-03-29T02:42:57;97742.56;;;8.73;100.00
71361;BME280;59166;48.908;1.870;2024-03-29T02:47:57;97746.34;;;8.72;100.00
71361;BME280;59166;48.908;1.870;2024-03-29T02:52:58;97752.38;;;8.69;100.00
71361;BME280;59166;48.908;1.870;2024-03-29T02:58:00;97743.31;;;8.65;100.00
71361;BME280;59166;48.908;1.870;2024-03-29T03:03:00;97736.66;;;8.63;100.00
71361;BME280;59166;48.908;1.870;2024-03-29T03:08:01;97731.56;;;8.61;100.00
71361;BME280;59166;48.908;1.870;2024-03-29T03:13:03;97743.13;;;8.62;100.00
71361;BME280;59166;48.908;1.870;2024-03-29T03:18:04;97747.53;;;8.58;100.00
71361;BME280;59166;48.908;1.870;2024-03-29T03:23:05;97757.03;;;8.55;100.00
71361;BME280;59166;48.908;1.870;2024-03-29T03:28:07;97757.03;;;8.55;100.00
71361;BME280;59166;48.908;1.870;2024-03-29T03:33:07;97761.94;;;8.53;100.00
71361;BME280;59166;48.908;1.870;2024-03-29T03:38:08;97780.34;;;8.38;100.00
71361;BME280;59166;48.908;1.870;2024-03-29T03:43:10;97775.66;;;8.43;100.00
71361;BME280;59166;48.908;1.870;2024-03-29T03:48:11;97767.88;;;8.42;100.00
71361;BME280;59166;48.908;1.870;2024-03-29T03:53:11;97766.91;;;8.38;100.00
71361;BME280;59166;48.908;1.870;2024-03-29T03:58:14;97782.88;;;8.34;100.00
71361;BME280;59166;48.908;1.870;2024-03-29T04:03:14;97799.44;;;8.27;100.00
71361;BME280;59166;48.908;1.870;2024-03-29T04:08:15;97805.44;;;8.24;100.00
71361;BME280;59166;48.908;1.870;2024-03-29T04:13:18;97809.72;;;8.25;100.00
71361;BME280;59166;48.908;1.870;2024-03-29T04:18:19;97821.47;;;8.29;100.00
71361;BME280;59166;48.908;1.870;2024-03-29T04:23:19;97817.97;;;8.29;100.00
71361;BME280;59166;48.908;1.870;2024-03-29T04:28:21;97825.56;;;8.27;100.00
71361;BME280;59166;48.908;1.870;2024-03-29T04:33:22;97842.97;;;8.29;100.00
71361;BME280;59166;48.908;1.870;2024-03-29T04:38:24;97853.72;;;8.29;100.00
71361;BME280;59166;48.908;1.870;2024-03-29T04:43:26;97855.63;;;8.29;100.00
71361;BME280;59166;48.908;1.870;2024-03-29T04:48:27;97858.22;;;8.20;100.00
71361;BME280;59166;48.908;1.870;2024-03-29T04:53:28;97849.75;;;8.27;100.00
71361;BME280;59166;48.908;1.870;2024-03-29T04:58:30;97844.88;;;8.29;100.00
71361;BME280;59166;48.908;1.870;2024-03-29T05:03:30;97853.16;;;8.41;100.00
71361;BME280;59166;48.908;1.870;2024-03-29T05:08:31;97856.59;;;8.33;100.00
71361;BME280;59166;48.908;1.870;2024-03-29T05:13:33;97851.84;;;8.30;100.00
71361;BME280;59166;48.908;1.870;2024-03-29T05:18:34;97876.16;;;8.25;100.00
71361;BME280;59166;48.908;1.870;2024-03-29T05:23:34;97876.38;;;8.15;100.00
71361;BME280;59166;48.908;1.870;2024-03-29T05:28:36;97875.59;;;8.14;100.00
71361;BME280;59166;48.908;1.870;2024-03-29T05:33:37;97879.88;;;8.15;100.00
71361;BME280;59166;48.908;1.870;2024-03-29T05:38:38;97877.47;;;8.14;100.00
71361;BME280;59166;48.908;1.870;2024-03-29T05:43:40;97878.41;;;8.09;100.00
71361;BME280;59166;48.908;1.870;2024-03-29T05:48:40;97868.44;;;8.10;100.00
71361;BME280;59166;48.908;1.870;2024-03-29T05:53:41;97877.59;;;8.09;100.00
71361;BME280;59166;48.908;1.870;2024-03-29T05:58:43;97881.09;;;8.09;100.00
71361;BME280;59166;48.908;1.870;2024-03-29T06:03:44;97882.66;;;8.10;100.00
71361;BME280;59166;48.908;1.870;2024-03-29T06:08:44;97896.28;;;8.14;100.00
71361;BME280;59166;48.908;1.870;2024-03-29T06:13:46;97873.41;;;8.16;100.00
71361;BME280;59166;48.908;1.870;2024-03-29T06:18:47;97871.31;;;8.13;100.00
71361;BME280;59166;48.908;1.870;2024-03-29T06:23:47;97890.63;;;8.15;100.00
71361;BME280;59166;48.908;1.870;2024-03-29T06:28:49;97883.34;;;8.16;100.00
71361;BME280;59166;48.908;1.870;2024-03-29T06:33:50;97900.97;;;8.22;100.00
71361;BME280;59166;48.908;1.870;2024-03-29T06:38:50;97927.56;;;8.23;100.00
71361;BME280;59166;48.908;1.870;2024-03-29T06:43:52;97930.03;;;8.34;100.00
71361;BME280;59166;48.908;1.870;2024-03-29T06:48:53;97940.38;;;8.40;100.00
71361;BME280;59166;48.908;1.870;2024-03-29T06:53:54;97937.44;;;8.50;100.00
71361;BME280;59166;48.908;1.870;2024-03-29T06:58:55;97937.25;;;8.47;100.00
71361;BME280;59166;48.908;1.870;2024-03-29T07:03:56;97927.16;;;8.52;100.00
71361;BME280;59166;48.908;1.870;2024-03-29T07:08:57;97906.50;;;8.61;100.00
71361;BME280;59166;48.908;1.870;2024-03-29T07:13:59;97896.28;;;8.72;100.00
71361;BME280;59166;48.908;1.870;2024-03-29T07:18:59;97908.81;;;8.76;100.00
71361;BME280;59166;48.908;1.870;2024-03-29T07:24:00;97915.47;;;8.79;100.00
71361;BME280;59166;48.908;1.870;2024-03-29T07:29:02;97925.41;;;8.92;100.00
71361;BME280;59166;48.908;1.870;2024-03-29T07:34:02;97939.25;;;8.99;100.00
71361;BME280;59166;48.908;1.870;2024-03-29T07:39:03;97946.59;;;9.07;100.00
71361;BME280;59166;48.908;1.870;2024-03-29T07:44:05;97945.00;;;9.06;100.00
71361;BME280;59166;48.908;1.870;2024-03-29T07:49:06;97942.03;;;9.16;100.00
71361;BME280;59166;48.908;1.870;2024-03-29T07:54:06;97950.78;;;9.22;100.00
71361;BME280;59166;48.908;1.870;2024-03-29T07:59:08;97965.75;;;9.37;100.00
71361;BME280;59166;48.908;1.870;2024-03-29T08:04:09;97966.47;;;9.51;100.00
71361;BME280;59166;48.908;1.870;2024-03-29T08:09:09;97957.31;;;9.60;100.00
71361;BME280;59166;48.908;1.870;2024-03-29T08:14:11;97965.91;;;9.71;100.00
71361;BME280;59166;48.908;1.870;2024-03-29T08:19:12;97986.41;;;9.80;100.00
71361;BME280;59166;48.908;1.870;2024-03-29T08:24:13;97994.84;;;9.88;100.00
71361;BME280;59166;48.908;1.870;2024-03-29T08:29:15;97994.78;;;10.18;100.00
71361;BME280;59166;48.908;1.870;2024-03-29T08:34:15;97985.75;;;10.40;100.00
71361;BME280;59166;48.908;1.870;2024-03-29T08:39:16;98000.09;;;10.58;100.00
71361;BME280;59166;48.908;1.870;2024-03-29T08:44:18;98000.16;;;10.83;100.00
71361;BME280;59166;48.908;1.870;2024-03-29T08:49:18;98017.47;;;11.00;100.00
71361;BME280;59166;48.908;1.870;2024-03-29T08:54:19;98023.47;;;11.05;100.00
71361;BME280;59166;48.908;1.870;2024-03-29T08:59:21;98028.41;;;10.77;100.00
71361;BME280;59166;48.908;1.870;2024-03-29T09:04:22;98026.34;;;10.83;100.00
71361;BME280;59166;48.908;1.870;2024-03-29T09:09:23;98049.72;;;11.13;100.00
71361;BME280;59166;48.908;1.870;2024-03-29T09:14:25;98054.72;;;11.75;100.00
71361;BME280;59166;48.908;1.870;2024-03-29T09:19:25;98079.63;;;11.89;100.00
71361;BME280;59166;48.908;1.870;2024-03-29T09:24:26;98079.69;;;11.63;100.00
71361;BME280;59166;48.908;1.870;2024-03-29T09:29:28;98103.13;;;11.33;100.00
71361;BME280;59166;48.908;1.870;2024-03-29T09:34:29;98073.06;;;11.35;100.00
71361;BME280;59166;48.908;1.870;2024-03-29T09:39:29;98065.72;;;11.61;100.00
71361;BME280;59166;48.908;1.870;2024-03-29T09:44:33;98078.16;;;12.00;100.00
71361;BME280;59166;48.908;1.870;2024-03-29T09:49:34;98098.81;;;12.13;100.00
71361;BME280;59166;48.908;1.870;2024-03-29T09:54:35;98102.56;;;12.29;100.00
71361;BME280;59166;48.908;1.870;2024-03-29T09:59:38;98113.56;;;12.42;100.00
71361;BME280;59166;48.908;1.870;2024-03-29T10:04:39;98101.88;;;12.50;100.00
71361;BME280;59166;48.908;1.870;2024-03-29T10:09:41;98095.75;;;12.70;100.00
71361;BME280;59166;48.908;1.870;2024-03-29T10:14:45;98103.94;;;12.53;100.00
71361;BME280;59166;48.908;1.870;2024-03-29T10:19:46;98098.91;;;12.72;100.00
71361;BME280;59166;48.908;1.870;2024-03-29T10:24:47;98098.59;;;12.94;100.00
71361;BME280;59166;48.908;1.870;2024-03-29T10:29:51;98095.34;;;13.01;100.00
71361;BME280;59166;48.908;1.870;2024-03-29T10:34:52;98095.63;;;13.28;100.00
71361;BME280;59166;48.908;1.870;2024-03-29T10:39:52;98090.91;;;13.37;100.00
71361;BME280;59166;48.908;1.870;2024-03-29T10:44:56;98089.91;;;13.63;100.00
71361;BME280;59166;48.908;1.870;2024-03-29T10:49:58;98071.88;;;13.79;100.00
71361;BME280;59166;48.908;1.870;2024-03-29T10:54:59;98072.06;;;14.43;100.00
71361;BME280;59166;48.908;1.870;2024-03-29T11:00:04;98070.38;;;14.51;100.00
71361;BME280;59166;48.908;1.870;2024-03-29T11:05:09;98076.84;;;14.58;100.00
71361;BME280;59166;48.908;1.870;2024-03-29T11:10:15;98097.88;;;14.37;99.21
71361;BME280;59166;48.908;1.870;2024-03-29T11:15:22;98095.69;;;14.06;100.00
71361;BME280;59166;48.908;1.870;2024-03-29T11:20:27;98095.94;;;14.25;100.00
71361;BME280;59166;48.908;1.870;2024-03-29T11:25:37;98096.78;;;14.38;100.00
71361;BME280;59166;48.908;1.870;2024-03-29T11:30:45;98090.75;;;14.32;96.24
71361;BME280;59166;48.908;1.870;2024-03-29T11:35:47;98088.69;;;15.14;97.44
71361;BME280;59166;48.908;1.870;2024-03-29T11:40:54;98094.53;;;15.28;88.26
71361;BME280;59166;48.908;1.870;2024-03-29T11:45:58;98081.09;;;15.08;90.55
71361;BME280;59166;48.908;1.870;2024-03-29T11:50:59;98103.69;;;14.96;86.65
71361;BME280;59166;48.908;1.870;2024-03-29T11:56:02;98096.53;;;14.67;88.32
71361;BME280;59166;48.908;1.870;2024-03-29T12:01:07;98101.84;;;14.64;85.05
71361;BME280;59166;48.908;1.870;2024-03-29T12:06:09;98080.66;;;14.93;88.59
71361;BME280;59166;48.908;1.870;2024-03-29T12:11:09;98095.59;;;14.87;82.95
71361;BME280;59166;48.908;1.870;2024-03-29T12:16:11;98098.69;;;14.62;89.19
71361;BME280;59166;48.908;1.870;2024-03-29T12:21:12;98082.56;;;14.93;87.76
71361;BME280;59166;48.908;1.870;2024-03-29T12:26:13;98083.69;;;15.16;83.43
71361;BME280;59166;48.908;1.870;2024-03-29T12:31:15;98108.66;;;15.06;85.32
71361;BME280;59166;48.908;1.870;2024-03-29T12:36:16;98108.53;;;15.03;79.72
71361;BME280;59166;48.908;1.870;2024-03-29T12:41:16;98106.16;;;14.89;82.13
71361;BME280;59166;48.908;1.870;2024-03-29T12:46:18;98093.91;;;14.83;82.73
71361;BME280;59166;48.908;1.870;2024-03-29T12:51:19;98094.47;;;15.01;85.23
71361;BME280;59166;48.908;1.870;2024-03-29T12:56:20;98099.34;;;14.83;83.41
71361;BME280;59166;48.908;1.870;2024-03-29T13:01:22;98106.38;;;14.84;81.61
71361;BME280;59166;48.908;1.870;2024-03-29T13:06:22;98104.94;;;15.38;84.22
71361;BME280;59166;48.908;1.870;2024-03-29T13:11:23;98111.31;;;15.58;81.41
71361;BME280;59166;48.908;1.870;2024-03-29T13:16:25;98097.19;;;15.40;79.39
71361;BME280;59166;48.908;1.870;2024-03-29T13:21:26;98094.66;;;15.60;82.74
71361;BME280;59166;48.908;1.870;2024-03-29T13:26:26;98085.78;;;16.06;76.61
71361;BME280;59166;48.908;1.870;2024-03-29T13:31:28;98071.94;;;16.11;75.62
71361;BME280;59166;48.908;1.870;2024-03-29T13:36:29;98048.91;;;15.65;77.57
71361;BME280;59166;48.908;1.870;2024-03-29T13:41:30;98049.75;;;15.97;77.84
71361;BME280;59166;48.908;1.870;2024-03-29T13:46:32;98082.91;;;16.46;71.22
71361;BME280;59166;48.908;1.870;2024-03-29T13:51:33;98112.72;;;16.23;66.86
71361;BME280;59166;48.908;1.870;2024-03-29T13:56:33;98101.97;;;16.15;70.51
71361;BME280;59166;48.908;1.870;2024-03-29T14:01:35;98069.25;;;15.99;71.81
71361;BME280;59166;48.908;1.870;2024-03-29T14:06:36;98092.25;;;15.86;70.74
71361;BME280;59166;48.908;1.870;2024-03-29T14:11:37;98109.19;;;15.79;73.16
71361;BME280;59166;48.908;1.870;2024-03-29T14:16:39;98113.25;;;15.58;75.44
71361;BME280;59166;48.908;1.870;2024-03-29T14:21:39;98097.34;;;15.32;71.95
71361;BME280;59166;48.908;1.870;2024-03-29T14:26:40;98093.53;;;15.21;72.02
71361;BME280;59166;48.908;1.870;2024-03-29T14:31:42;98080.19;;;15.16;70.62
71361;BME280;59166;48.908;1.870;2024-03-29T14:36:43;98084.50;;;15.05;72.33
71361;BME280;59166;48.908;1.870;2024-03-29T14:41:43;98085.78;;;14.95;70.13
71361;BME280;59166;48.908;1.870;2024-03-29T14:46:45;98082.47;;;14.89;70.81
71361;BME280;59166;48.908;1.870;2024-03-29T14:51:46;98086.78;;;14.78;76.36
71361;BME280;59166;48.908;1.870;2024-03-29T14:56:47;98093.69;;;14.64;73.65
71361;BME280;59166;48.908;1.870;2024-03-29T15:01:49;98089.50;;;14.66;74.19
71361;BME280;59166;48.908;1.870;2024-03-29T15:06:49;98093.69;;;14.64;77.21
71361;BME280;59166;48.908;1.870;2024-03-29T15:11:50;98078.41;;;14.59;76.54
71361;BME280;59166;48.908;1.870;2024-03-29T15:16:52;98077.19;;;14.69;77.69
71361;BME280;59166;48.908;1.870;2024-03-29T15:21:54;98074.00;;;14.67;79.48
71361;BME280;59166;48.908;1.870;2024-03-29T15:26:54;98082.84;;;14.76;81.58
71361;BME280;59166;48.908;1.870;2024-03-29T15:31:57;98088.50;;;14.71;81.75
71361;BME280;59166;48.908;1.870;2024-03-29T15:36:57;98085.88;;;14.50;82.73
71361;BME280;59166;48.908;1.870;2024-03-29T15:41:58;98070.16;;;14.43;82.60
71361;BME280;59166;48.908;1.870;2024-03-29T15:47:00;98081.38;;;14.54;81.42
71361;BME280;59166;48.908;1.870;2024-03-29T15:52:01;98069.84;;;14.45;86.63
71361;BME280;59166;48.908;1.870;2024-03-29T15:57:02;98072.66;;;14.36;89.34
71361;BME280;59166;48.908;1.870;2024-03-29T16:02:04;98076.72;;;14.42;90.59
71361;BME280;59166;48.908;1.870;2024-03-29T16:07:05;98074.25;;;14.37;89.22
71361;BME280;59166;48.908;1.870;2024-03-29T16:12:06;98075.81;;;14.26;89.13
71361;BME280;59166;48.908;1.870;2024-03-29T16:17:08;98070.81;;;14.16;89.88
71361;BME280;59166;48.908;1.870;2024-03-29T16:22:09;98072.94;;;13.99;89.08
71361;BME280;59166;48.908;1.870;2024-03-29T16:27:09;98072.13;;;13.86;88.95
71361;BME280;59166;48.908;1.870;2024-03-29T16:32:11;98071.88;;;13.79;90.24
71361;BME280;59166;48.908;1.870;2024-03-29T16:37:12;98078.91;;;13.80;92.27
71361;BME280;59166;48.908;1.870;2024-03-29T16:42:12;98082.03;;;13.70;93.51
71361;BME280;59166;48.908;1.870;2024-03-29T16:47:14;98083.56;;;13.59;94.92
71361;BME280;59166;48.908;1.870;2024-03-29T16:52:15;98072.66;;;13.47;97.22
71361;BME280;59166;48.908;1.870;2024-03-29T16:57:16;98083.78;;;13.33;98.73
71361;BME280;59166;48.908;1.870;2024-03-29T17:02:18;98086.56;;;13.24;100.00
71361;BME280;59166;48.908;1.870;2024-03-29T17:07:19;98102.28;;;13.31;100.00
71361;BME280;59166;48.908;1.870;2024-03-29T17:12:19;98088.03;;;13.22;100.00
71361;BME280;59166;48.908;1.870;2024-03-29T17:17:21;98099.63;;;13.10;100.00
71361;BME280;59166;48.908;1.870;2024-03-29T17:22:22;98123.75;;;13.03;100.00
71361;BME280;59166;48.908;1.870;2024-03-29T17:27:23;98119.47;;;12.94;100.00
71361;BME280;59166;48.908;1.870;2024-03-29T17:32:25;98118.22;;;12.91;100.00
71361;BME280;59166;48.908;1.870;2024-03-29T17:37:25;98112.47;;;12.93;100.00
71361;BME280;59166;48.908;1.870;2024-03-29T17:42:26;98095.59;;;12.87;100.00
71361;BME280;59166;48.908;1.870;2024-03-29T17:47:28;98105.72;;;12.78;100.00
71361;BME280;59166;48.908;1.870;2024-03-29T17:52:28;98107.63;;;12.77;100.00
71361;BME280;59166;48.908;1.870;2024-03-29T17:57:29;98092.69;;;12.71;100.00
71361;BME280;59166;48.908;1.870;2024-03-29T18:02:31;98108.50;;;12.61;100.00
71361;BME280;59166;48.908;1.870;2024-03-29T18:07:32;98122.56;;;12.54;100.00
71361;BME280;59166;48.908;1.870;2024-03-29T18:12:32;98147.59;;;12.51;100.00
71361;BME280;59166;48.908;1.870;2024-03-29T18:17:34;98143.78;;;12.52;100.00
71361;BME280;59166;48.908;1.870;2024-03-29T18:22:35;98142.03;;;12.48;100.00
71361;BME280;59166;48.908;1.870;2024-03-29T18:27:36;98139.88;;;12.32;100.00
71361;BME280;59166;48.908;1.870;2024-03-29T18:32:38;98145.28;;;12.32;100.00
71361;BME280;59166;48.908;1.870;2024-03-29T18:37:38;98133.50;;;12.28;100.00
71361;BME280;59166;48.908;1.870;2024-03-29T18:42:39;98153.25;;;12.20;100.00
71361;BME280;59166;48.908;1.870;2024-03-29T18:47:41;98166.31;;;12.18;100.00
71361;BME280;59166;48.908;1.870;2024-03-29T18:52:42;98166.81;;;12.12;100.00
71361;BME280;59166;48.908;1.870;2024-03-29T18:57:43;98173.81;;;11.96;100.00
71361;BME280;59166;48.908;1.870;2024-03-29T19:02:45;98192.00;;;11.78;100.00
71361;BME280;59166;48.908;1.870;2024-03-29T19:07:46;98193.59;;;11.79;100.00
71361;BME280;59166;48.908;1.870;2024-03-29T19:12:46;98193.91;;;11.60;100.00
71361;BME280;59166;48.908;1.870;2024-03-29T19:17:48;98208.69;;;11.37;100.00
71361;BME280;59166;48.908;1.870;2024-03-29T19:22:49;98202.00;;;11.26;100.00
71361;BME280;59166;48.908;1.870;2024-03-29T19:27:49;98212.75;;;11.00;100.00
71361;BME280;59166;48.908;1.870;2024-03-29T19:32:58;98229.59;;;10.97;100.00
71361;BME280;59166;48.908;1.870;2024-03-29T19:37:59;98226.84;;;10.89;100.00
71361;BME280;59166;48.908;1.870;2024-03-29T19:43:00;98245.75;;;10.80;100.00
71361;BME280;59166;48.908;1.870;2024-03-29T19:48:02;98256.78;;;10.70;100.00
71361;BME280;59166;48.908;1.870;2024-03-29T19:53:03;98271.50;;;10.64;100.00
71361;BME280;59166;48.908;1.870;2024-03-29T19:58:03;98287.75;;;10.42;100.00
71361;BME280;59166;48.908;1.870;2024-03-29T20:03:11;98283.44;;;10.41;100.00
71361;BME280;59166;48.908;1.870;2024-03-29T20:08:12;98293.34;;;10.45;100.00
71361;BME280;59166;48.908;1.870;2024-03-29T20:13:13;98291.91;;;10.48;100.00
71361;BME280;59166;48.908;1.870;2024-03-29T20:18:15;98287.91;;;10.37;100.00
71361;BME280;59166;48.908;1.870;2024-03-29T20:23:16;98288.91;;;10.27;100.00
71361;BME280;59166;48.908;1.870;2024-03-29T20:28:17;98297.34;;;10.25;100.00
71361;BME280;59166;48.908;1.870;2024-03-29T20:33:19;98296.63;;;10.20;100.00
71361;BME280;59166;48.908;1.870;2024-03-29T20:38:20;98283.09;;;10.11;100.00
71361;BME280;59166;48.908;1.870;2024-03-29T20:43:21;98276.72;;;10.07;100.00
71361;BME280;59166;48.908;1.870;2024-03-29T20:48:23;98269.72;;;10.06;100.00
71361;BME280;59166;48.908;1.870;2024-03-29T20:53:23;98278.13;;;10.05;100.00
71361;BME280;59166;48.908;1.870;2024-03-29T20:58:24;98266.88;;;10.03;100.00
71361;BME280;59166;48.908;1.870;2024-03-29T21:03:26;98253.06;;;10.04;100.00
71361;BME280;59166;48.908;1.870;2024-03-29T21:08:27;98239.53;;;9.96;100.00
71361;BME280;59166;48.908;1.870;2024-03-29T21:13:28;98230.00;;;9.98;100.00
71361;BME280;59166;48.908;1.870;2024-03-29T21:18:30;98229.03;;;9.94;100.00
71361;BME280;59166;48.908;1.870;2024-03-29T21:23:31;98246.81;;;9.95;100.00
71361;BME280;59166;48.908;1.870;2024-03-29T21:28:32;98250.16;;;10.01;100.00
71361;BME280;59166;48.908;1.870;2024-03-29T21:33:34;98257.22;;;9.88;100.00
71361;BME280;59166;48.908;1.870;2024-03-29T21:38:34;98243.75;;;9.88;100.00
71361;BME280;59166;48.908;1.870;2024-03-29T21:43:35;98248.22;;;9.93;100.00
71361;BME280;59166;48.908;1.870;2024-03-29T21:48:37;98260.41;;;9.90;100.00
71361;BME280;59166;48.908;1.870;2024-03-29T21:53:37;98272.41;;;9.84;100.00
71361;BME280;59166;48.908;1.870;2024-03-29T21:58:38;98304.53;;;9.72;100.00
71361;BME280;59166;48.908;1.870;2024-03-29T22:03:40;98329.66;;;9.81;100.00
71361;BME280;59166;48.908;1.870;2024-03-29T22:08:40;98321.38;;;9.77;100.00
71361;BME280;59166;48.908;1.870;2024-03-29T22:13:41;98319.47;;;9.78;100.00
71361;BME280;59166;48.908;1.870;2024-03-29T22:18:43;98309.78;;;9.77;100.00
71361;BME280;59166;48.908;1.870;2024-03-29T22:23:43;98305.91;;;9.69;100.00
71361;BME280;59166;48.908;1.870;2024-03-29T22:28:44;98309.19;;;9.66;100.00
71361;BME280;59166;48.908;1.870;2024-03-29T22:33:46;98299.97;;;9.59;100.00
71361;BME280;59166;48.908;1.870;2024-03-29T22:38:47;98283.66;;;9.64;100.00
71361;BME280;59166;48.908;1.870;2024-03-29T22:43:47;98268.38;;;9.59;100.00
71361;BME280;59166;48.908;1.870;2024-03-29T22:48:50;98270.13;;;9.55;100.00
71361;BME280;59166;48.908;1.870;2024-03-29T22:53:51;98301.25;;;9.48;100.00
71361;BME280;59166;48.908;1.870;2024-03-29T22:58:52;98328.91;;;9.40;100.00
71361;BME280;59166;48.908;1.870;2024-03-29T23:03:54;98347.38;;;9.32;100.00
71361;BME280;59166;48.908;1.870;2024-03-29T23:08:55;98334.63;;;9.24;100.00
71361;BME280;59166;48.908;1.870;2024-03-29T23:13:55;98331.72;;;9.21;100.00
71361;BME280;59166;48.908;1.870;2024-03-29T23:18:57;98341.38;;;9.22;100.00
71361;BME280;59166;48.908;1.870;2024-03-29T23:23:58;98340.69;;;9.16;100.00
71361;BME280;59166;48.908;1.870;2024-03-29T23:28:58;98342.28;;;9.17;100.00
71361;BME280;59166;48.908;1.870;2024-03-29T23:34:00;98335.78;;;9.18;100.00
71361;BME280;59166;48.908;1.870;2024-03-29T23:39:01;98333.69;;;9.15;100.00
71361;BME280;59166;48.908;1.870;2024-03-29T23:44:01;98327.22;;;9.03;100.00
71361;BME280;59166;48.908;1.870;2024-03-29T23:49:04;98320.34;;;8.97;100.00
71361;BME280;59166;48.908;1.870;2024-03-29T23:54:04;98310.00;;;8.85;100.00
71361;BME280;59166;48.908;1.870;2024-03-29T23:59:05;98304.81;;;8.75;100.00
